Time;durP1;ratioP1;P1;durP2;ratioP2;P2;SDS_P1;SDS_P2;PMS_P1;PMS_P2;Temp;Humidity;BMP_temperature;BMP_pressure;BME280_temperature;BME280_humidity;BME280_pressure;Samples;Min_cycle;Max_cycle;Signal;HPM_P1;HPM_P2
2022/04/06 04:42:10;;;;;;;2.20;2.00;;;8.30;98.90;;;;;;5679651;22;20848;-89
2022/04/06 04:48:11;;;;;;;3.00;2.55;;;8.30;99.20;;;;;;5058296;28;20199;-89
2022/04/06 04:51:04;;;;;;;2.20;2.00;;;8.40;98.90;;;;;;5046677;28;20229;-87
2022/04/06 04:53:41;;;;;;;1.92;1.75;;;8.50;98.60;;;;;;5045576;28;20241;-88
2022/04/06 04:56:10;;;;;;;2.65;2.40;;;8.50;98.40;;;;;;5050324;28;20198;-88
2022/04/06 05:40:00;;;;;;;4.63;2.40;;;8.90;98.50;;;;;;5049837;28;20233;-89
2022/04/06 05:43:12;;;;;;;2.50;2.30;;;8.80;98.40;;;;;;5032948;28;20202;-89
2022/04/06 05:46:05;;;;;;;3.03;2.10;;;8.70;98.50;;;;;;5043640;28;20266;-89
2022/04/06 05:48:34;;;;;;;3.17;2.30;;;8.90;98.50;;;;;;5019257;28;20205;-89
2022/04/06 05:51:06;;;;;;;2.30;2.10;;;9.10;98.10;;;;;;5058847;28;20218;-91
2022/04/06 06:39:24;;;;;;;3.70;2.00;;;11.60;90.60;;;;;;5049167;28;20283;-87
2022/04/06 06:45:13;;;;;;;2.88;1.60;;;11.70;90.70;;;;;;4958498;29;20265;-86
2022/04/06 06:51:31;;;;;;;;;;;;;;;;;;;;;
2022/04/06 09:22:43;;;;;;;3.58;3.28;;;17.40;36.70;;;;;;4964966;28;20245;-88
2022/04/06 09:25:20;;;;;;;3.50;3.20;;;18.00;36.30;;;;;;4961808;29;20594;-90
2022/04/06 09:27:47;;;;;;;4.05;3.47;;;19.90;30.10;;;;;;4947469;28;20229;-91
2022/04/06 09:30:17;;;;;;;9.55;4.20;;;20.20;28.10;;;;;;4915970;29;20226;-89
2022/04/06 09:32:45;;;;;;;3.60;3.30;;;19.90;28.50;;;;;;4937178;29;20230;-89
2022/04/06 09:35:25;;;;;;;5.95;3.53;;;20.60;27.00;;;;;;4939947;29;20198;-88
2022/04/06 09:38:09;;;;;;;4.32;3.90;;;20.70;26.60;;;;;;4937755;29;20234;-85
2022/04/06 09:40:37;;;;;;;4.75;3.53;;;20.00;28.90;;;;;;4937661;29;20198;-85
2022/04/06 09:43:06;;;;;;;4.93;3.28;;;20.60;28.70;;;;;;4934985;29;20434;-88
2022/04/06 09:48:17;;;;;;;4.75;3.30;;;20.70;25.90;;;;;;4934540;29;20627;-88
2022/04/06 09:50:58;;;;;;;3.10;2.88;;;21.10;25.50;;;;;;4934385;29;20233;-87
2022/04/06 09:53:29;;;;;;;4.10;3.28;;;22.00;23.20;;;;;;4925966;29;20236;-86
2022/04/06 09:55:57;;;;;;;3.67;3.38;;;22.00;22.60;;;;;;4935042;29;20200;-84
2022/04/06 09:58:25;;;;;;;4.00;3.03;;;22.20;22.10;;;;;;4936697;29;20229;-85
2022/04/06 10:00:56;;;;;;;4.15;3.00;;;23.10;20.80;;;;;;4932213;29;20213;-87
2022/04/06 10:03:23;;;;;;;7.28;3.30;;;24.70;18.10;;;;;;4932612;29;20233;-88
2022/04/06 10:05:51;;;;;;;4.78;2.90;;;24.10;17.60;;;;;;4934695;29;20212;-87
2022/04/06 10:08:23;;;;;;;4.07;3.10;;;24.40;18.20;;;;;;4936068;29;20875;-87
2022/04/06 10:10:55;;;;;;;3.17;2.97;;;24.80;17.00;;;;;;4921704;29;20237;-89
2022/04/06 10:13:24;;;;;;;3.33;3.10;;;25.00;16.70;;;;;;4931523;29;20237;-87
2022/04/06 10:15:59;;;;;;;4.07;2.72;;;25.50;14.40;;;;;;4929702;29;20205;-89
2022/04/06 10:18:28;;;;;;;2.90;2.70;;;25.40;15.30;;;;;;4931046;29;20204;-87
2022/04/06 10:21:00;;;;;;;3.40;3.10;;;24.60;15.40;;;;;;4935892;29;20198;-86
2022/04/06 10:23:40;;;;;;;3.20;2.90;;;23.40;18.00;;;;;;4927300;29;20268;-87
2022/04/06 10:26:24;;;;;;;4.47;2.70;;;23.10;19.10;;;;;;4918777;29;20663;-88
2022/04/06 10:28:51;;;;;;;3.03;2.83;;;23.40;18.10;;;;;;4933726;29;20232;-87
2022/04/06 10:31:22;;;;;;;4.68;3.40;;;22.90;19.20;;;;;;4934617;29;20221;-88
2022/04/06 10:39:13;;;;;;;3.47;2.70;;;23.20;18.10;;;;;;4952562;28;20231;-91
2022/04/06 10:42:04;;;;;;;2.78;2.58;;;22.30;19.10;;;;;;4965456;28;20322;-90
2022/04/06 10:44:41;;;;;;;2.92;2.63;;;21.80;21.00;;;;;;4966677;28;20283;-91
2022/04/06 10:47:09;;;;;;;2.90;2.45;;;21.80;20.30;;;;;;4967706;28;20595;-90
2022/04/06 10:55:29;;;;;;;2.50;2.30;;;20.20;23.70;;;;;;4962489;28;20213;-92
2022/04/06 10:57:57;;;;;;;3.05;2.75;;;21.00;22.00;;;;;;4959013;28;20234;-92
2022/04/06 11:00:25;;;;;;;3.78;2.55;;;21.10;22.00;;;;;;4967038;28;20253;-91
2022/04/06 17:16:23;;;;;;;2.85;1.98;;;15.30;31.40;;;;;;4994660;28;20172;-88
2022/04/06 18:13:45;;;;;;;2.20;1.38;;;13.50;50.00;;;;;;4988899;28;20207;-86
2022/04/06 20:46:11;;;;;;;2.17;1.98;;;11.20;84.70;;;;;;5003793;28;20234;-88
